createdAt,value
2022-08-20T00:00:37.977Z,63.89
2022-08-20T00:03:10.761Z,64.57
2022-08-20T00:05:41.016Z,65.54
2022-08-20T00:08:08.713Z,65.75
2022-08-20T00:10:36.998Z,65.24
2022-08-20T00:13:05.659Z,64.63
2022-08-20T00:15:34.476Z,64.24
2022-08-20T00:18:01.900Z,64.68
2022-08-20T00:20:32.360Z,63.47
2022-08-20T00:22:59.010Z,64.28
2022-08-20T00:25:28.535Z,64.03
2022-08-20T00:27:56.716Z,64.38
2022-08-20T00:30:24.223Z,64.68
2022-08-20T00:32:54.923Z,65.14
2022-08-20T00:35:24.205Z,65.26
2022-08-20T00:37:52.211Z,64.80
2022-08-20T00:40:24.104Z,65.27
2022-08-20T00:42:53.810Z,66.14
2022-08-20T00:45:20.938Z,64.95
2022-08-20T00:47:51.614Z,64.85
2022-08-20T00:50:22.344Z,65.33
2022-08-20T00:52:51.097Z,65.50
2022-08-20T00:55:20.472Z,64.50
2022-08-20T00:58:01.057Z,64.76
2022-08-20T01:00:33.325Z,65.08
2022-08-20T01:03:00.658Z,65.38
2022-08-20T01:05:29.610Z,65.03
2022-08-20T01:07:57.149Z,64.63
2022-08-20T01:10:27.825Z,64.36
2022-08-20T01:12:59.185Z,64.32
2022-08-20T01:15:31.175Z,64.15
2022-08-20T01:17:59.598Z,64.08
2022-08-20T01:20:30.836Z,64.39
2022-08-20T01:23:27.289Z,64.81
2022-08-20T01:26:14.206Z,64.62
2022-08-20T01:28:43.685Z,64.59
2022-08-20T01:31:13.316Z,64.84
2022-08-20T01:33:39.907Z,64.91
2022-08-20T01:36:10.381Z,65.41
2022-08-20T01:38:39.824Z,65.37
2022-08-20T01:41:28.776Z,65.71
2022-08-20T01:43:58.375Z,65.52
2022-08-20T01:46:29.811Z,66.04
2022-08-20T01:48:58.039Z,66.45
2022-08-20T01:51:27.698Z,66.91
2022-08-20T01:53:56.637Z,67.09
2022-08-20T01:56:29.216Z,67.23
2022-08-20T01:58:58.966Z,67.24
2022-08-20T02:01:34.609Z,66.94
2022-08-20T02:04:15.229Z,67.16
2022-08-20T02:06:56.734Z,68.29
2022-08-20T02:09:26.309Z,68.85
2022-08-20T02:11:53.350Z,68.63
2022-08-20T02:14:20.307Z,68.78
2022-08-20T02:16:54.559Z,68.76
2022-08-20T02:19:37.115Z,69.37
2022-08-20T02:22:09.850Z,69.80
2022-08-20T02:24:36.394Z,70.03
2022-08-20T02:27:02.890Z,70.17
2022-08-20T02:29:29.807Z,70.94
2022-08-20T02:32:32.108Z,70.82
2022-08-20T02:34:43.289Z,70.58
2022-08-20T02:37:10.345Z,71.11
2022-08-20T02:39:36.902Z,70.40
2022-08-20T02:42:04.558Z,70.83
2022-08-20T02:44:31.258Z,71.10
2022-08-20T02:46:58.576Z,71.19
2022-08-20T02:49:25.162Z,71.36
2022-08-20T02:51:52.169Z,71.82
2022-08-20T02:54:18.836Z,71.64
2022-08-20T02:56:45.318Z,71.72
2022-08-20T02:59:12.588Z,72.51
2022-08-20T03:01:46.535Z,72.45
2022-08-20T03:04:26.612Z,72.58
2022-08-20T03:06:53.063Z,72.49
2022-08-20T03:09:19.563Z,72.29
2022-08-20T03:11:46.145Z,72.53
2022-08-20T03:14:12.809Z,72.43
2022-08-20T03:16:39.281Z,72.81
2022-08-20T03:19:05.979Z,73.34
2022-08-20T03:21:32.455Z,73.19
2022-08-20T03:23:58.964Z,72.93
2022-08-20T03:26:25.497Z,73.35
2022-08-20T03:28:52.037Z,73.54
2022-08-20T03:31:19.000Z,74.10
2022-08-20T03:33:53.498Z,74.20
2022-08-20T03:36:27.736Z,74.36
2022-08-20T03:39:06.737Z,74.44
2022-08-20T03:41:33.402Z,74.07
2022-08-20T03:43:59.983Z,74.52
2022-08-20T03:46:26.627Z,74.49
2022-08-20T03:48:59.968Z,74.54
2022-08-20T03:51:29.319Z,73.74
2022-08-20T03:53:55.956Z,73.96
2022-08-20T03:56:22.642Z,74.02
2022-08-20T03:58:49.322Z,73.53
2022-08-20T04:01:45.335Z,73.67
2022-08-20T04:04:02.799Z,73.50
2022-08-20T04:06:30.460Z,72.65
2022-08-20T04:08:58.499Z,72.53
2022-08-20T04:11:25.233Z,72.64
2022-08-20T04:13:51.863Z,72.21
2022-08-20T04:16:19.340Z,72.52
2022-08-20T04:19:01.601Z,72.38
2022-08-20T04:21:33.646Z,72.59
2022-08-20T04:24:01.240Z,72.21
2022-08-20T04:26:27.905Z,71.83
2022-08-20T04:28:55.778Z,71.80
2022-08-20T04:31:32.607Z,72.00
2022-08-20T04:34:03.498Z,70.72
2022-08-20T04:36:30.231Z,71.38
2022-08-20T04:38:57.303Z,71.25
2022-08-20T04:41:24.315Z,71.55
2022-08-20T04:43:54.784Z,71.98
2022-08-20T04:46:23.604Z,71.98
2022-08-20T04:48:50.633Z,72.13
2022-08-20T04:51:18.673Z,72.05
2022-08-20T04:53:52.077Z,72.83
2022-08-20T04:56:24.044Z,72.65
2022-08-20T04:58:52.565Z,71.74
2022-08-20T05:01:19.149Z,71.90
2022-08-20T05:03:47.962Z,71.73
2022-08-20T05:06:16.084Z,72.06
2022-08-20T05:08:42.666Z,72.57
2022-08-20T05:11:34.183Z,73.18
2022-08-20T05:13:56.766Z,73.52
2022-08-20T05:16:24.526Z,72.70
2022-08-20T05:18:52.322Z,73.14
2022-08-20T05:21:19.327Z,72.75
2022-08-20T05:23:45.922Z,72.52
2022-08-20T05:26:13.078Z,71.67
2022-08-20T05:28:57.185Z,72.14
2022-08-20T05:31:32.000Z,72.60
2022-08-20T05:34:11.401Z,72.67
2022-08-20T05:36:40.500Z,72.70
2022-08-20T05:39:08.758Z,72.26
2022-08-20T05:41:36.308Z,71.45
2022-08-20T05:44:03.146Z,70.92
2022-08-20T05:46:31.483Z,70.63
2022-08-20T05:48:59.394Z,70.38
2022-08-20T05:51:26.771Z,70.14
2022-08-20T05:53:53.448Z,71.00
2022-08-20T05:56:19.908Z,70.43
2022-08-20T05:58:53.448Z,70.61
2022-08-20T06:01:20.026Z,69.63
2022-08-20T06:04:05.354Z,69.19
2022-08-20T06:06:46.279Z,68.71
2022-08-20T06:09:15.793Z,68.82
2022-08-20T06:11:42.449Z,68.26
2022-08-20T06:14:09.310Z,67.88
2022-08-20T06:16:37.320Z,67.75
2022-08-20T06:19:11.296Z,66.86
2022-08-20T06:21:38.663Z,67.13
2022-08-20T06:24:05.615Z,66.21
2022-08-20T06:26:34.435Z,66.38
2022-08-20T06:29:02.534Z,65.44
2022-08-20T06:31:29.136Z,65.45
2022-08-20T06:33:55.716Z,65.07
2022-08-20T06:36:22.486Z,64.91
2022-08-20T06:38:49.409Z,64.29
2022-08-20T06:41:17.297Z,64.86
2022-08-20T06:43:43.817Z,64.70
2022-08-20T06:46:10.894Z,65.31
2022-08-20T06:48:38.222Z,64.64
2022-08-20T06:51:06.624Z,64.50
2022-08-20T06:53:33.278Z,65.48
2022-08-20T06:55:59.874Z,64.24
2022-08-20T06:58:35.630Z,64.62
2022-08-20T07:01:09.721Z,58.36
2022-08-20T07:03:38.607Z,55.07
2022-08-20T07:06:05.333Z,55.56
2022-08-20T07:08:31.976Z,59.32
2022-08-20T07:10:59.682Z,60.39
2022-08-20T07:13:26.720Z,61.80
2022-08-20T07:15:54.178Z,62.56
2022-08-20T07:18:27.885Z,62.70
2022-08-20T07:20:57.801Z,62.05
2022-08-20T07:23:26.428Z,60.80
2022-08-20T07:25:53.713Z,61.01
2022-08-20T07:28:23.344Z,60.40
2022-08-20T07:31:13.219Z,59.39
2022-08-20T07:33:41.570Z,55.16
2022-08-20T07:36:09.459Z,51.46
2022-08-20T07:38:36.915Z,48.69
2022-08-20T07:41:09.978Z,49.40
2022-08-20T07:43:36.778Z,48.87
2022-08-20T07:46:08.849Z,45.62
2022-08-20T07:48:40.445Z,40.27
2022-08-20T07:51:09.224Z,36.59
2022-08-20T07:53:37.623Z,36.32
2022-08-20T07:56:08.915Z,37.06
2022-08-20T07:58:36.819Z,40.09
2022-08-20T08:01:05.305Z,42.15
2022-08-20T08:03:39.611Z,42.15
2022-08-20T08:06:17.245Z,41.81
2022-08-20T08:08:57.434Z,42.08
2022-08-20T08:11:24.153Z,41.28
2022-08-20T08:13:51.786Z,41.50
2022-08-20T08:16:20.191Z,40.71
2022-08-20T08:18:51.788Z,40.69
2022-08-20T08:21:19.035Z,40.25
2022-08-20T08:23:45.778Z,40.20
2022-08-20T08:26:16.135Z,40.05
2022-08-20T08:28:46.501Z,41.86
2022-08-20T08:31:14.161Z,43.19
2022-08-20T08:33:41.852Z,43.15
2022-08-20T08:36:11.862Z,43.60
2022-08-20T08:38:40.318Z,42.02
2022-08-20T08:41:31.919Z,43.00
2022-08-20T08:44:27.260Z,42.23
2022-08-20T08:46:58.874Z,43.20
2022-08-20T08:49:37.850Z,43.54
2022-08-20T08:52:31.562Z,45.09
2022-08-20T08:55:00.880Z,45.48
2022-08-20T08:57:27.485Z,44.95
2022-08-20T09:00:04.377Z,44.76
2022-08-20T09:02:33.946Z,45.02
2022-08-20T09:05:02.027Z,44.16
2022-08-20T09:07:31.675Z,43.97
2022-08-20T09:09:58.928Z,45.41
2022-08-20T09:12:27.761Z,45.91
2022-08-20T09:14:54.825Z,44.81
2022-08-20T09:17:22.735Z,45.12
2022-08-20T09:19:50.464Z,44.72
2022-08-20T09:22:20.801Z,43.37
2022-08-20T09:24:47.666Z,42.84
2022-08-20T09:27:14.428Z,42.67
2022-08-20T09:29:41.075Z,43.04
2022-08-20T09:32:13.758Z,42.93
2022-08-20T09:34:45.793Z,42.75
2022-08-20T09:37:13.035Z,43.18
2022-08-20T09:39:39.675Z,43.33
2022-08-20T09:42:10.783Z,43.65
2022-08-20T09:44:37.686Z,44.26
2022-08-20T09:47:04.323Z,45.75
2022-08-20T09:49:31.160Z,45.92
2022-08-20T09:52:00.344Z,46.33
2022-08-20T09:54:30.087Z,46.97
2022-08-20T09:57:02.394Z,47.38
2022-08-20T09:59:30.213Z,44.36
2022-08-20T10:01:58.079Z,45.00
2022-08-20T10:04:24.933Z,44.38
2022-08-20T10:06:51.773Z,45.00
2022-08-20T10:09:18.387Z,44.57
2022-08-20T10:11:44.955Z,46.97
2022-08-20T10:14:11.428Z,46.96
2022-08-20T10:16:37.997Z,45.50
2022-08-20T10:19:05.537Z,45.38
2022-08-20T10:21:36.680Z,45.06
2022-08-20T10:24:05.374Z,43.83
2022-08-20T10:26:31.929Z,44.44
2022-08-20T10:28:58.816Z,44.15
2022-08-20T10:31:25.425Z,44.13
2022-08-20T10:33:52.000Z,44.53
2022-08-20T10:36:18.875Z,43.10
2022-08-20T10:38:45.916Z,43.95
2022-08-20T10:41:12.477Z,42.42
2022-08-20T10:43:39.028Z,42.22
2022-08-20T10:46:05.965Z,41.72
2022-08-20T10:48:32.839Z,41.68
2022-08-20T10:50:59.619Z,40.59
2022-08-20T10:53:26.221Z,40.60
2022-08-20T10:55:54.559Z,41.91
2022-08-20T10:58:23.775Z,39.96
2022-08-20T11:00:51.900Z,39.89
2022-08-20T11:03:18.929Z,39.58
2022-08-20T11:05:46.226Z,39.98
2022-08-20T11:08:12.893Z,39.66
2022-08-20T11:10:39.697Z,39.81
2022-08-20T11:13:07.767Z,38.63
2022-08-20T11:15:37.243Z,38.62
2022-08-20T11:18:04.496Z,39.23
2022-08-20T11:20:32.074Z,41.07
2022-08-20T11:22:59.220Z,40.93
2022-08-20T11:25:26.445Z,41.11
2022-08-20T11:27:55.282Z,40.05
2022-08-20T11:30:28.824Z,39.37
2022-08-20T11:32:56.983Z,39.77
2022-08-20T11:35:42.141Z,39.07
2022-08-20T11:38:12.382Z,39.52
2022-08-20T11:40:39.905Z,39.37
2022-08-20T11:43:15.469Z,39.39
2022-08-20T11:45:45.110Z,39.55
2022-08-20T11:48:11.758Z,38.92
2022-08-20T11:50:38.432Z,39.04
2022-08-20T11:53:05.049Z,39.30
2022-08-20T11:55:32.653Z,37.47
2022-08-20T11:58:00.651Z,38.28
2022-08-20T12:00:32.984Z,38.31
2022-08-20T12:03:05.582Z,38.78
2022-08-20T12:05:35.701Z,38.07
2022-08-20T12:08:02.200Z,37.34
2022-08-20T12:10:30.051Z,38.13
2022-08-20T12:12:57.713Z,37.06
2022-08-20T12:15:25.426Z,36.58
2022-08-20T12:17:52.447Z,37.16
2022-08-20T12:20:20.623Z,37.15
2022-08-20T12:22:47.345Z,38.49
2022-08-20T12:25:14.190Z,38.13
2022-08-20T12:27:42.013Z,37.93
2022-08-20T12:30:12.005Z,37.78
2022-08-20T12:32:39.347Z,38.30
2022-08-20T12:35:07.755Z,37.28
2022-08-20T12:37:35.325Z,35.82
2022-08-20T12:40:04.910Z,36.50
2022-08-20T12:42:32.750Z,36.54
2022-08-20T12:45:00.430Z,36.25
2022-08-20T12:47:29.951Z,35.56
2022-08-20T12:50:01.085Z,34.50
2022-08-20T12:52:29.512Z,35.28
2022-08-20T12:54:57.359Z,35.82
2022-08-20T12:57:35.904Z,33.77
2022-08-20T13:00:10.426Z,33.63
2022-08-20T13:02:38.801Z,33.51
2022-08-20T13:05:07.263Z,34.59
2022-08-20T13:07:34.503Z,33.08
2022-08-20T13:10:01.494Z,34.22
2022-08-20T13:12:28.292Z,33.57
2022-08-20T13:14:55.059Z,33.52
2022-08-20T13:17:38.259Z,34.22
2022-08-20T13:20:11.409Z,33.58
2022-08-20T13:22:38.280Z,32.93
2022-08-20T13:25:06.075Z,33.02
2022-08-20T13:27:32.674Z,34.50
2022-08-20T13:29:59.410Z,33.39
2022-08-20T13:32:26.041Z,34.64
2022-08-20T13:34:52.631Z,34.08
2022-08-20T13:37:25.088Z,33.95
2022-08-20T13:39:52.533Z,32.58
2022-08-20T13:42:19.215Z,33.79
2022-08-20T13:44:45.974Z,33.60
2022-08-20T13:47:26.191Z,34.42
2022-08-20T13:50:17.049Z,33.45
2022-08-20T13:52:44.423Z,33.33
2022-08-20T13:55:14.955Z,33.56
2022-08-20T13:57:41.977Z,33.58
2022-08-20T14:00:13.876Z,32.70
2022-08-20T14:02:42.391Z,33.90
2022-08-20T14:05:10.530Z,34.22
2022-08-20T14:07:38.643Z,34.95
2022-08-20T14:10:18.021Z,33.61
2022-08-20T14:12:46.152Z,31.87
2022-08-20T14:15:12.940Z,30.93
2022-08-20T14:17:49.346Z,31.92
2022-08-20T14:20:18.083Z,32.99
2022-08-20T14:22:45.301Z,33.08
2022-08-20T14:25:14.065Z,33.42
2022-08-20T14:27:41.946Z,33.46
2022-08-20T14:30:12.760Z,34.32
2022-08-20T14:32:42.495Z,33.89
2022-08-20T14:35:12.511Z,35.04
2022-08-20T14:37:42.007Z,34.74
2022-08-20T14:40:11.979Z,34.79
2022-08-20T14:42:39.405Z,35.31
2022-08-20T14:45:08.480Z,35.10
2022-08-20T14:47:38.417Z,35.57
2022-08-20T14:50:10.525Z,34.82
2022-08-20T14:52:41.236Z,35.52
2022-08-20T14:55:14.309Z,34.84
2022-08-20T14:57:41.462Z,34.72
2022-08-20T15:00:13.793Z,33.62
2022-08-20T15:02:43.598Z,33.09
2022-08-20T15:05:10.822Z,34.06
2022-08-20T15:07:41.007Z,33.94
2022-08-20T15:10:13.415Z,34.47
2022-08-20T15:12:40.117Z,34.44
2022-08-20T15:15:15.434Z,34.85
2022-08-20T15:17:45.299Z,35.39
2022-08-20T15:20:20.096Z,36.03
2022-08-20T15:22:47.886Z,36.33
2022-08-20T15:25:17.346Z,35.64
2022-08-20T15:27:44.799Z,36.99
2022-08-20T15:30:15.321Z,35.05
2022-08-20T15:32:42.081Z,35.14
2022-08-20T15:35:11.224Z,34.64
2022-08-20T15:37:46.044Z,35.78
2022-08-20T15:40:16.163Z,36.94
2022-08-20T15:42:43.413Z,36.58
2022-08-20T15:45:21.618Z,35.85
2022-08-20T15:48:01.115Z,35.70
2022-08-20T15:50:34.164Z,35.67
2022-08-20T15:53:18.061Z,35.62
2022-08-20T15:55:57.183Z,35.74
2022-08-20T15:58:36.309Z,35.28
2022-08-20T16:01:25.671Z,35.57
2022-08-20T16:04:04.185Z,36.90
2022-08-20T16:06:32.354Z,37.17
2022-08-20T16:09:20.611Z,37.46
2022-08-20T16:12:13.551Z,38.27
2022-08-20T16:14:45.842Z,39.11
2022-08-20T16:17:16.290Z,38.61
2022-08-20T16:19:50.959Z,39.68
2022-08-20T16:22:19.562Z,39.31
2022-08-20T16:24:46.524Z,39.45
2022-08-20T16:27:40.013Z,40.02
2022-08-20T16:30:09.962Z,39.59
2022-08-20T16:32:42.283Z,39.64
2022-08-20T16:35:42.079Z,39.71
2022-08-20T16:38:23.668Z,39.59
2022-08-20T16:41:18.913Z,39.68
2022-08-20T16:43:53.940Z,40.51
2022-08-20T16:46:22.753Z,40.35
2022-08-20T16:48:57.136Z,39.97
2022-08-20T16:51:32.051Z,40.92
2022-08-20T16:53:58.985Z,42.04
2022-08-20T16:56:38.184Z,42.80
2022-08-20T16:59:07.478Z,43.08
2022-08-20T17:01:34.705Z,43.92
2022-08-20T17:04:01.391Z,44.99
2022-08-20T17:06:37.859Z,45.16
2022-08-20T17:09:11.785Z,45.82
2022-08-20T17:11:38.967Z,45.94
2022-08-20T17:14:17.243Z,46.77
2022-08-20T17:16:51.720Z,47.45
2022-08-20T17:19:29.664Z,47.76
2022-08-20T17:22:09.032Z,47.83
2022-08-20T17:24:37.667Z,48.09
2022-08-20T17:27:10.536Z,47.93
2022-08-20T17:29:52.302Z,48.70
2022-08-20T17:32:25.993Z,48.67
2022-08-20T17:34:56.978Z,49.15
2022-08-20T17:37:29.619Z,49.14
2022-08-20T17:40:25.241Z,49.55
2022-08-20T17:43:01.625Z,49.45
2022-08-20T17:45:36.172Z,49.12
2022-08-20T17:48:05.571Z,49.59
2022-08-20T17:50:35.269Z,50.35
2022-08-20T17:53:23.554Z,50.67
2022-08-20T17:56:03.727Z,50.66
2022-08-20T17:58:54.880Z,51.04
2022-08-20T18:01:25.808Z,51.03
2022-08-20T18:03:53.329Z,50.75
2022-08-20T18:06:31.665Z,51.52
2022-08-20T18:09:39.591Z,51.47
2022-08-20T18:12:27.924Z,51.17
2022-08-20T18:15:10.073Z,51.66
2022-08-20T18:18:22.124Z,51.83
2022-08-20T18:21:22.491Z,51.76
2022-08-20T18:24:27.138Z,51.45
2022-08-20T18:26:59.052Z,51.91
2022-08-20T18:29:39.376Z,52.20
2022-08-20T18:32:07.890Z,52.22
2022-08-20T18:34:41.097Z,52.62
2022-08-20T18:37:25.360Z,52.48
2022-08-20T18:39:52.662Z,52.74
2022-08-20T18:42:26.440Z,53.35
2022-08-20T18:44:57.201Z,53.82
2022-08-20T18:47:27.965Z,53.76
2022-08-20T18:50:16.197Z,53.81
2022-08-20T18:52:49.753Z,53.94
2022-08-20T18:55:43.068Z,53.37
2022-08-20T18:58:12.605Z,54.38
2022-08-20T19:00:58.577Z,53.88
2022-08-20T19:03:35.917Z,54.80
2022-08-20T19:06:12.870Z,54.15
2022-08-20T19:09:04.951Z,54.59
2022-08-20T19:11:42.386Z,54.50
2022-08-20T19:14:18.003Z,54.84
2022-08-20T19:16:48.867Z,54.42
2022-08-20T19:19:20.989Z,55.34
2022-08-20T19:21:48.207Z,55.72
2022-08-20T19:24:24.936Z,55.46
2022-08-20T19:26:57.451Z,55.33
2022-08-20T19:29:31.203Z,54.76
2022-08-20T19:32:02.886Z,55.61
2022-08-20T19:34:31.569Z,55.20
2022-08-20T19:37:10.124Z,55.32
2022-08-20T19:39:50.810Z,55.08
2022-08-20T19:42:22.454Z,55.43
2022-08-20T19:44:53.724Z,56.12
2022-08-20T19:47:31.608Z,56.17
2022-08-20T19:50:18.056Z,56.04
2022-08-20T19:53:03.049Z,56.10
2022-08-20T19:55:35.258Z,55.78
2022-08-20T19:58:05.448Z,55.97
2022-08-20T20:00:44.538Z,55.55
2022-08-20T20:03:23.185Z,55.69
2022-08-20T20:05:54.363Z,55.89
2022-08-20T20:08:22.474Z,56.73
2022-08-20T20:11:00.205Z,56.79
2022-08-20T20:13:29.655Z,57.01
2022-08-20T20:16:01.861Z,56.85
2022-08-20T20:18:35.481Z,56.93
2022-08-20T20:21:23.007Z,57.37
2022-08-20T20:23:55.066Z,57.66
2022-08-20T20:26:21.713Z,57.47
2022-08-20T20:28:53.804Z,57.61
2022-08-20T20:31:46.077Z,58.31
2022-08-20T20:34:13.793Z,58.08
2022-08-20T20:36:45.289Z,58.43
2022-08-20T20:39:33.874Z,58.50
2022-08-20T20:42:02.735Z,58.24
2022-08-20T20:44:37.062Z,58.19
2022-08-20T20:47:06.993Z,58.39
2022-08-20T20:49:57.928Z,58.47
2022-08-20T20:52:33.322Z,58.31
2022-08-20T20:55:05.956Z,58.96
2022-08-20T20:57:37.875Z,58.66
2022-08-20T21:00:20.645Z,58.81
2022-08-20T21:02:47.688Z,59.20
2022-08-20T21:05:16.233Z,59.00
2022-08-20T21:07:54.982Z,59.43
2022-08-20T21:10:24.079Z,58.71
2022-08-20T21:12:53.162Z,59.24
2022-08-20T21:15:21.222Z,59.72
2022-08-20T21:17:47.734Z,59.49
2022-08-20T21:20:14.209Z,59.78
2022-08-20T21:22:40.879Z,60.05
2022-08-20T21:25:07.804Z,60.20
2022-08-20T21:27:34.932Z,60.35
2022-08-20T21:30:03.188Z,60.15
2022-08-20T21:32:29.748Z,60.48
2022-08-20T21:34:57.108Z,60.78
2022-08-20T21:37:23.755Z,60.13
2022-08-20T21:39:50.418Z,60.65
2022-08-20T21:42:29.085Z,60.27
2022-08-20T21:44:58.491Z,60.65
2022-08-20T21:47:25.696Z,60.72
2022-08-20T21:49:52.313Z,60.78
2022-08-20T21:52:19.059Z,60.36
2022-08-20T21:54:45.609Z,61.28
2022-08-20T21:57:20.410Z,60.67
2022-08-20T21:59:47.812Z,61.17
2022-08-20T22:02:16.269Z,61.16
2022-08-20T22:04:43.059Z,60.82
2022-08-20T22:07:10.624Z,61.04
2022-08-20T22:09:38.863Z,60.77
2022-08-20T22:12:17.692Z,60.70
2022-08-20T22:14:44.916Z,60.59
2022-08-20T22:17:12.928Z,61.07
2022-08-20T22:19:39.616Z,60.84
2022-08-20T22:22:06.433Z,60.83
2022-08-20T22:24:32.928Z,60.90
2022-08-20T22:26:59.482Z,60.97
2022-08-20T22:29:26.217Z,60.95
2022-08-20T22:31:52.817Z,60.82
2022-08-20T22:34:19.853Z,61.43
2022-08-20T22:36:47.003Z,61.29
2022-08-20T22:39:13.622Z,62.27
2022-08-20T22:41:40.302Z,61.92
2022-08-20T22:44:06.814Z,61.66
2022-08-20T22:46:36.439Z,61.50
2022-08-20T22:49:04.103Z,61.97
2022-08-20T22:51:34.732Z,62.46
2022-08-20T22:54:03.235Z,62.18
2022-08-20T22:56:30.112Z,62.53
2022-08-20T22:58:59.037Z,63.12
2022-08-20T23:01:26.385Z,63.30
2022-08-20T23:03:53.048Z,63.92
2022-08-20T23:06:20.037Z,64.05
2022-08-20T23:08:46.871Z,64.09
2022-08-20T23:11:13.431Z,64.56
2022-08-20T23:13:39.865Z,64.83
2022-08-20T23:16:06.921Z,64.81
2022-08-20T23:18:33.657Z,65.43
2022-08-20T23:21:00.680Z,65.37
2022-08-20T23:23:27.780Z,66.04
2022-08-20T23:25:54.672Z,66.00
2022-08-20T23:28:22.835Z,66.19
2022-08-20T23:30:49.403Z,66.35
2022-08-20T23:33:16.041Z,66.50
2022-08-20T23:35:43.480Z,66.56
2022-08-20T23:38:10.227Z,67.11
2022-08-20T23:40:38.461Z,67.42
2022-08-20T23:43:05.145Z,67.81
2022-08-20T23:45:32.672Z,68.00
2022-08-20T23:47:59.465Z,68.35
2022-08-20T23:50:28.756Z,68.61
2022-08-20T23:52:56.246Z,69.14
2022-08-20T23:55:23.317Z,69.29
2022-08-20T23:57:50.447Z,69.38
